< Cyclone 200806 2008 Season Cyclone 200811 >
Cyclone 200808 (Helen)
General InformationTrack Information on Google MapsDetailed Wind InformationList of All Images || ResourceGoogle EarthGE AnimationAtom FeedGeoJSON
Detalied Best Track (Time Zone = UTC)
Year Month Day Hour Lat. Long. Pressure (hPa) Wind (kt) Class Image Chart
2007 12 28 00 -13.1 130.9 1003 0 0 Image --
2007 12 28 03 -13.4 131.7 1001 0 0 Image --
2007 12 28 06 -13.7 132.0 998 0 0 Image --
2007 12 28 09 -13.5 132.5 998 0 0 Image --
2007 12 28 12 -13.3 132.8 1001 0 0 Image --
2007 12 28 15 -13.1 132.8 1000 0 0 Image --
2007 12 28 18 -13.0 132.8 998 0 0 Image --
2007 12 28 21 -13.0 132.8 998 0 0 Image --
2007 12 29 00 -12.9 132.8 1000 0 0 Image --
2007 12 29 03 -12.7 132.7 999 0 0 Image --
2007 12 29 06 -12.6 132.7 997 0 0 Image --
2007 12 29 09 -12.6 132.8 997 0 0 Image --
2007 12 29 12 -12.5 132.8 1000 0 0 Image --
2007 12 29 15 -12.6 132.9 999 0 0 Image --
2007 12 29 18 -12.6 133.0 997 0 0 Image --
2007 12 29 21 -12.7 133.1 996 0 0 Image --
2007 12 30 00 -12.9 133.2 999 0 0 Image --
2007 12 30 03 -13.1 133.4 998 0 0 Image --
2007 12 30 06 -13.2 133.5 997 0 0 Image --
2007 12 30 09 -13.3 133.7 997 0 0 Image --
2007 12 30 12 -13.4 134.1 997 0 0 Image --
2007 12 30 15 -13.5 134.4 997 0 0 Image --
2007 12 30 18 -13.7 134.5 995 0 0 Image --
2007 12 30 21 -14.1 134.6 996 0 0 Image --
2007 12 31 00 -14.5 134.7 997 0 0 Image --
2007 12 31 03 -14.8 134.9 995 0 0 Image --
2007 12 31 06 -15.0 135.0 993 0 0 Image --
2007 12 31 09 -15.3 135.0 993 0 0 Image --
2007 12 31 12 -15.5 134.9 995 0 0 Image --
2007 12 31 15 -15.6 134.8 997 0 0 Image --
2007 12 31 18 -15.7 134.6 995 0 0 Image --
2007 12 31 21 -15.8 134.5 995 0 0 Image --
2008 1 1 00 -15.8 134.3 996 0 0 Image --
2008 1 1 03 -15.7 134.0 995 0 0 Image --
2008 1 1 06 -15.7 133.6 993 0 0 Image --
2008 1 1 09 -15.6 133.1 994 0 0 Image --
2008 1 1 12 -15.6 132.4 995 0 0 Image --
2008 1 1 15 -15.6 131.5 995 0 0 Image --
2008 1 1 18 -15.5 131.0 995 0 0 Image --
2008 1 1 21 -15.3 130.6 995 0 0 Image --
2008 1 2 00 -14.7 130.0 998 0 0 Image --
2008 1 2 03 -14.6 129.8 996 0 0 Image --
2008 1 2 06 -14.4 129.7 995 0 0 Image --
2008 1 2 09 -14.3 129.6 994 0 0 Image --
2008 1 2 12 -14.1 129.4 997 0 0 Image --
2008 1 2 15 -13.9 129.2 997 0 0 Image --
2008 1 2 18 -13.9 129.0 995 0 0 Image --
2008 1 2 21 -13.9 128.8 995 0 0 Image --
2008 1 3 00 -14.0 128.6 995 0 0 Image --
2008 1 3 03 -14.0 128.3 995 0 0 Image --
2008 1 3 06 -14.0 127.9 993 0 0 Image --
2008 1 3 09 -14.0 127.8 991 0 0 Image --
2008 1 3 12 -14.0 127.8 992 0 0 Image --
2008 1 3 15 -14.0 127.7 990 0 0 Image --
2008 1 3 18 -13.9 127.6 990 0 0 Image --
2008 1 3 21 -13.6 127.6 990 0 0 Image --
2008 1 4 00 -13.3 128.1 985 35 3 Image --
2008 1 4 03 -13.2 128.6 983 40 3 Image --
2008 1 4 06 -13.2 128.9 981 45 3 Image --
2008 1 4 09 -13.1 129.4 975 50 4 Image --
2008 1 4 12 -13.0 129.9 975 50 4 Image --
2008 1 4 15 -13.1 130.4 978 50 4 Image --
2008 1 4 18 -13.2 131.0 980 45 3 Image --
2008 1 4 21 -13.3 131.6 985 35 3 Image --
2008 1 5 00 -13.3 132.2 990 0 0 Image --
2008 1 5 06 -13.1 133.9 992 0 0 Image --
2008 1 5 12 -13.2 135.4 994 0 0 Image --
2008 1 5 18 -13.2 136.8 992 0 0 Image --
2008 1 6 00 -13.4 138.6 992 0 0 Image --
2008 1 6 06 -14.3 140.3 992 0 0 Image --
< Cyclone 200806 2008 Season Cyclone 200811 >

Help